9 de Julio, Argentina
Current Conditions -  °F | °C
As of 12:00 AM on Tuesday 23 Dec 2014 (Local Time) from SAME Reporting Station
Clear Clear  
Wind Chill: 57°   Ceiling: Unl
Heat Index: 57°   Visibility: 6mi
Dew Point: 30°   Wind: 5mph
Humidity: 36%   Direction: 320°NW
Pressure: 30.21"   Gusts: NA
Location:  31.65°S, 68.4°W
Report Text: SAME 230300Z 32004KT CAVOK 14/M01 Q1023
Loading
Personal Weather Stations






























Interactive Weather Map New forecast layout! Learn more

10-Day Weather Forecast

Advertisements
Track Severe Weather on mobile